sensor_id;sensor_type;location;lat;lon;timestamp;P1;durP1;ratioP1;P2;durP2;ratioP2
35715;SDS011;21840;44.920;8.616;2023-02-28T00:00:47;7.80;;;6.13;;
35715;SDS011;21840;44.920;8.616;2023-02-28T00:03:13;10.57;;;6.28;;
35715;SDS011;21840;44.920;8.616;2023-02-28T00:05:38;8.90;;;6.55;;
35715;SDS011;21840;44.920;8.616;2023-02-28T00:08:04;9.43;;;6.07;;
35715;SDS011;21840;44.920;8.616;2023-02-28T00:10:30;12.07;;;6.22;;
35715;SDS011;21840;44.920;8.616;2023-02-28T00:12:59;10.13;;;6.43;;
35715;SDS011;21840;44.920;8.616;2023-02-28T00:15:29;12.77;;;6.28;;
35715;SDS011;21840;44.920;8.616;2023-02-28T00:17:55;11.60;;;6.00;;
35715;SDS011;21840;44.920;8.616;2023-02-28T00:20:21;9.07;;;6.20;;
35715;SDS011;21840;44.920;8.616;2023-02-28T00:22:47;9.45;;;6.32;;
35715;SDS011;21840;44.920;8.616;2023-02-28T00:25:16;9.55;;;7.18;;
35715;SDS011;21840;44.920;8.616;2023-02-28T00:27:44;9.32;;;6.60;;
35715;SDS011;21840;44.920;8.616;2023-02-28T00:30:11;11.48;;;6.68;;
35715;SDS011;21840;44.920;8.616;2023-02-28T00:32:38;11.40;;;7.28;;
35715;SDS011;21840;44.920;8.616;2023-02-28T00:35:04;12.88;;;8.02;;
35715;SDS011;21840;44.920;8.616;2023-02-28T00:37:30;14.27;;;7.28;;
35715;SDS011;21840;44.920;8.616;2023-02-28T00:39:56;12.13;;;7.82;;
35715;SDS011;21840;44.920;8.616;2023-02-28T00:42:22;13.05;;;8.10;;
35715;SDS011;21840;44.920;8.616;2023-02-28T00:44:47;11.20;;;7.60;;
35715;SDS011;21840;44.920;8.616;2023-02-28T00:47:13;12.02;;;7.97;;
35715;SDS011;21840;44.920;8.616;2023-02-28T00:49:39;12.55;;;7.72;;
35715;SDS011;21840;44.920;8.616;2023-02-28T00:52:05;12.35;;;7.90;;
35715;SDS011;21840;44.920;8.616;2023-02-28T00:54:30;13.43;;;7.75;;
35715;SDS011;21840;44.920;8.616;2023-02-28T00:56:56;14.40;;;7.55;;
35715;SDS011;21840;44.920;8.616;2023-02-28T00:59:21;16.92;;;7.95;;
35715;SDS011;21840;44.920;8.616;2023-02-28T01:01:47;11.30;;;7.18;;
35715;SDS011;21840;44.920;8.616;2023-02-28T01:04:13;12.00;;;7.38;;
35715;SDS011;21840;44.920;8.616;2023-02-28T01:06:39;13.93;;;8.38;;
35715;SDS011;21840;44.920;8.616;2023-02-28T01:09:06;13.00;;;7.18;;
35715;SDS011;21840;44.920;8.616;2023-02-28T01:11:31;12.45;;;7.20;;
35715;SDS011;21840;44.920;8.616;2023-02-28T01:13:58;9.75;;;7.15;;
35715;SDS011;21840;44.920;8.616;2023-02-28T01:16:24;11.35;;;6.78;;
35715;SDS011;21840;44.920;8.616;2023-02-28T01:18:50;17.83;;;7.50;;
35715;SDS011;21840;44.920;8.616;2023-02-28T01:21:17;13.55;;;7.32;;
35715;SDS011;21840;44.920;8.616;2023-02-28T01:23:44;14.27;;;7.28;;
35715;SDS011;21840;44.920;8.616;2023-02-28T01:26:14;10.95;;;6.88;;
35715;SDS011;21840;44.920;8.616;2023-02-28T01:28:45;12.15;;;7.75;;
35715;SDS011;21840;44.920;8.616;2023-02-28T01:31:11;11.95;;;7.35;;
35715;SDS011;21840;44.920;8.616;2023-02-28T01:33:37;10.75;;;7.18;;
35715;SDS011;21840;44.920;8.616;2023-02-28T01:36:09;13.23;;;7.40;;
35715;SDS011;21840;44.920;8.616;2023-02-28T01:38:36;13.27;;;7.75;;
35715;SDS011;21840;44.920;8.616;2023-02-28T01:41:02;15.35;;;7.65;;
35715;SDS011;21840;44.920;8.616;2023-02-28T01:43:39;12.50;;;7.15;;
35715;SDS011;21840;44.920;8.616;2023-02-28T01:46:14;13.25;;;7.13;;
35715;SDS011;21840;44.920;8.616;2023-02-28T01:48:41;13.95;;;7.30;;
35715;SDS011;21840;44.920;8.616;2023-02-28T01:51:13;14.23;;;7.03;;
35715;SDS011;21840;44.920;8.616;2023-02-28T01:53:46;13.75;;;6.95;;
35715;SDS011;21840;44.920;8.616;2023-02-28T01:56:19;11.02;;;6.78;;
35715;SDS011;21840;44.920;8.616;2023-02-28T01:58:52;13.82;;;6.07;;
35715;SDS011;21840;44.920;8.616;2023-02-28T02:01:19;14.63;;;6.60;;
35715;SDS011;21840;44.920;8.616;2023-02-28T02:03:53;17.40;;;7.55;;
35715;SDS011;21840;44.920;8.616;2023-02-28T02:09:11;15.90;;;6.78;;
35715;SDS011;21840;44.920;8.616;2023-02-28T02:11:37;16.17;;;7.32;;
35715;SDS011;21840;44.920;8.616;2023-02-28T02:22:43;13.70;;;7.13;;
35715;SDS011;21840;44.920;8.616;2023-02-28T02:25:32;14.45;;;7.32;;
35715;SDS011;21840;44.920;8.616;2023-02-28T02:37:05;13.98;;;8.00;;
35715;SDS011;21840;44.920;8.616;2023-02-28T02:39:48;14.50;;;6.88;;
35715;SDS011;21840;44.920;8.616;2023-02-28T02:42:27;12.63;;;7.53;;
35715;SDS011;21840;44.920;8.616;2023-02-28T02:44:59;15.35;;;7.03;;
35715;SDS011;21840;44.920;8.616;2023-02-28T02:47:30;18.77;;;7.80;;
35715;SDS011;21840;44.920;8.616;2023-02-28T02:49:57;14.90;;;7.82;;
35715;SDS011;21840;44.920;8.616;2023-02-28T02:52:33;13.77;;;7.03;;
35715;SDS011;21840;44.920;8.616;2023-02-28T02:55:05;15.20;;;7.30;;
35715;SDS011;21840;44.920;8.616;2023-02-28T02:57:34;12.30;;;6.90;;
35715;SDS011;21840;44.920;8.616;2023-02-28T03:00:04;19.10;;;7.00;;
35715;SDS011;21840;44.920;8.616;2023-02-28T03:02:34;13.18;;;7.55;;
35715;SDS011;21840;44.920;8.616;2023-02-28T03:05:07;11.70;;;7.15;;
35715;SDS011;21840;44.920;8.616;2023-02-28T03:07:39;13.38;;;7.50;;
35715;SDS011;21840;44.920;8.616;2023-02-28T03:10:25;21.10;;;7.80;;
35715;SDS011;21840;44.920;8.616;2023-02-28T03:12:57;16.40;;;7.20;;
35715;SDS011;21840;44.920;8.616;2023-02-28T03:15:43;13.52;;;7.22;;
35715;SDS011;21840;44.920;8.616;2023-02-28T03:21:27;11.60;;;6.53;;
35715;SDS011;21840;44.920;8.616;2023-02-28T03:24:11;12.65;;;7.05;;
35715;SDS011;21840;44.920;8.616;2023-02-28T03:26:45;12.20;;;7.57;;
35715;SDS011;21840;44.920;8.616;2023-02-28T03:29:20;10.23;;;7.60;;
35715;SDS011;21840;44.920;8.616;2023-02-28T03:31:54;13.32;;;6.80;;
35715;SDS011;21840;44.920;8.616;2023-02-28T03:37:02;11.77;;;6.38;;
35715;SDS011;21840;44.920;8.616;2023-02-28T03:39:42;12.43;;;6.50;;
35715;SDS011;21840;44.920;8.616;2023-02-28T03:42:28;18.92;;;7.25;;
35715;SDS011;21840;44.920;8.616;2023-02-28T03:44:57;10.55;;;5.95;;
35715;SDS011;21840;44.920;8.616;2023-02-28T03:50:14;16.15;;;6.50;;
35715;SDS011;21840;44.920;8.616;2023-02-28T03:53:08;8.93;;;6.00;;
35715;SDS011;21840;44.920;8.616;2023-02-28T03:55:54;10.57;;;5.72;;
35715;SDS011;21840;44.920;8.616;2023-02-28T03:58:41;14.23;;;6.45;;
35715;SDS011;21840;44.920;8.616;2023-02-28T04:01:17;13.52;;;6.28;;
35715;SDS011;21840;44.920;8.616;2023-02-28T04:03:47;15.02;;;6.57;;
35715;SDS011;21840;44.920;8.616;2023-02-28T04:06:14;12.07;;;6.60;;
35715;SDS011;21840;44.920;8.616;2023-02-28T04:08:43;14.55;;;6.68;;
35715;SDS011;21840;44.920;8.616;2023-02-28T04:11:29;10.70;;;6.75;;
35715;SDS011;21840;44.920;8.616;2023-02-28T04:13:57;11.45;;;6.65;;
35715;SDS011;21840;44.920;8.616;2023-02-28T04:16:22;13.43;;;6.70;;
35715;SDS011;21840;44.920;8.616;2023-02-28T04:18:47;14.73;;;7.15;;
35715;SDS011;21840;44.920;8.616;2023-02-28T04:21:13;12.90;;;7.72;;
35715;SDS011;21840;44.920;8.616;2023-02-28T04:23:39;14.38;;;7.38;;
35715;SDS011;21840;44.920;8.616;2023-02-28T04:26:04;15.18;;;7.30;;
35715;SDS011;21840;44.920;8.616;2023-02-28T04:28:31;14.40;;;6.88;;
35715;SDS011;21840;44.920;8.616;2023-02-28T04:30:58;13.23;;;5.90;;
35715;SDS011;21840;44.920;8.616;2023-02-28T04:33:30;13.43;;;6.65;;
35715;SDS011;21840;44.920;8.616;2023-02-28T04:36:04;11.65;;;6.53;;
35715;SDS011;21840;44.920;8.616;2023-02-28T04:38:32;12.60;;;6.90;;
35715;SDS011;21840;44.920;8.616;2023-02-28T04:40:59;15.95;;;7.13;;
35715;SDS011;21840;44.920;8.616;2023-02-28T04:43:26;15.35;;;6.70;;
35715;SDS011;21840;44.920;8.616;2023-02-28T04:45:53;11.35;;;6.85;;
35715;SDS011;21840;44.920;8.616;2023-02-28T04:48:25;11.75;;;6.43;;
35715;SDS011;21840;44.920;8.616;2023-02-28T04:50:52;14.38;;;6.95;;
35715;SDS011;21840;44.920;8.616;2023-02-28T04:53:17;11.70;;;6.90;;
35715;SDS011;21840;44.920;8.616;2023-02-28T04:55:44;12.25;;;6.28;;
35715;SDS011;21840;44.920;8.616;2023-02-28T04:58:10;13.07;;;7.88;;
35715;SDS011;21840;44.920;8.616;2023-02-28T05:00:35;13.00;;;6.95;;
35715;SDS011;21840;44.920;8.616;2023-02-28T05:03:01;13.32;;;7.45;;
35715;SDS011;21840;44.920;8.616;2023-02-28T05:05:26;10.23;;;7.22;;
35715;SDS011;21840;44.920;8.616;2023-02-28T05:07:51;15.63;;;7.10;;
35715;SDS011;21840;44.920;8.616;2023-02-28T05:10:19;17.42;;;7.90;;
35715;SDS011;21840;44.920;8.616;2023-02-28T05:12:44;12.82;;;7.55;;
35715;SDS011;21840;44.920;8.616;2023-02-28T05:15:13;13.00;;;7.53;;
35715;SDS011;21840;44.920;8.616;2023-02-28T05:17:39;15.55;;;8.13;;
35715;SDS011;21840;44.920;8.616;2023-02-28T05:20:05;14.07;;;7.63;;
35715;SDS011;21840;44.920;8.616;2023-02-28T05:22:32;11.48;;;7.50;;
35715;SDS011;21840;44.920;8.616;2023-02-28T05:24:57;12.85;;;7.72;;
35715;SDS011;21840;44.920;8.616;2023-02-28T05:27:23;20.13;;;7.90;;
35715;SDS011;21840;44.920;8.616;2023-02-28T05:29:48;11.68;;;6.82;;
35715;SDS011;21840;44.920;8.616;2023-02-28T05:32:14;13.85;;;7.45;;
35715;SDS011;21840;44.920;8.616;2023-02-28T05:34:40;10.63;;;7.40;;
35715;SDS011;21840;44.920;8.616;2023-02-28T05:37:08;12.55;;;7.57;;
35715;SDS011;21840;44.920;8.616;2023-02-28T05:39:37;13.45;;;8.02;;
35715;SDS011;21840;44.920;8.616;2023-02-28T05:42:03;12.27;;;7.53;;
35715;SDS011;21840;44.920;8.616;2023-02-28T05:44:29;14.05;;;6.75;;
35715;SDS011;21840;44.920;8.616;2023-02-28T05:46:55;11.82;;;7.18;;
35715;SDS011;21840;44.920;8.616;2023-02-28T05:49:21;13.35;;;7.82;;
35715;SDS011;21840;44.920;8.616;2023-02-28T05:51:46;16.05;;;7.45;;
35715;SDS011;21840;44.920;8.616;2023-02-28T05:54:12;13.70;;;7.47;;
35715;SDS011;21840;44.920;8.616;2023-02-28T05:56:37;14.02;;;7.53;;
35715;SDS011;21840;44.920;8.616;2023-02-28T05:59:05;12.82;;;7.60;;
35715;SDS011;21840;44.920;8.616;2023-02-28T06:03:59;11.82;;;7.07;;
35715;SDS011;21840;44.920;8.616;2023-02-28T06:06:25;17.38;;;8.18;;
35715;SDS011;21840;44.920;8.616;2023-02-28T06:08:51;16.50;;;8.38;;
35715;SDS011;21840;44.920;8.616;2023-02-28T06:11:16;17.65;;;8.20;;
35715;SDS011;21840;44.920;8.616;2023-02-28T06:13:42;13.43;;;7.28;;
35715;SDS011;21840;44.920;8.616;2023-02-28T06:16:09;11.32;;;7.47;;
35715;SDS011;21840;44.920;8.616;2023-02-28T06:18:36;13.68;;;7.57;;
35715;SDS011;21840;44.920;8.616;2023-02-28T06:21:01;16.85;;;7.32;;
35715;SDS011;21840;44.920;8.616;2023-02-28T06:23:27;16.92;;;8.10;;
35715;SDS011;21840;44.920;8.616;2023-02-28T06:25:52;11.40;;;7.22;;
35715;SDS011;21840;44.920;8.616;2023-02-28T06:28:18;16.35;;;7.80;;
35715;SDS011;21840;44.920;8.616;2023-02-28T06:30:44;14.77;;;8.05;;
35715;SDS011;21840;44.920;8.616;2023-02-28T06:33:09;17.05;;;8.63;;
35715;SDS011;21840;44.920;8.616;2023-02-28T06:35:35;14.52;;;7.43;;
35715;SDS011;21840;44.920;8.616;2023-02-28T06:38:00;12.15;;;7.38;;
35715;SDS011;21840;44.920;8.616;2023-02-28T06:40:26;18.35;;;8.27;;
35715;SDS011;21840;44.920;8.616;2023-02-28T06:42:51;14.05;;;8.10;;
35715;SDS011;21840;44.920;8.616;2023-02-28T06:45:17;12.90;;;7.40;;
35715;SDS011;21840;44.920;8.616;2023-02-28T06:47:42;16.45;;;8.32;;
35715;SDS011;21840;44.920;8.616;2023-02-28T06:50:11;18.63;;;7.82;;
35715;SDS011;21840;44.920;8.616;2023-02-28T06:52:38;16.77;;;7.55;;
35715;SDS011;21840;44.920;8.616;2023-02-28T06:55:04;13.75;;;8.50;;
35715;SDS011;21840;44.920;8.616;2023-02-28T06:57:31;11.57;;;7.40;;
35715;SDS011;21840;44.920;8.616;2023-02-28T06:59:58;12.63;;;7.28;;
35715;SDS011;21840;44.920;8.616;2023-02-28T07:02:24;13.13;;;8.23;;
35715;SDS011;21840;44.920;8.616;2023-02-28T07:04:51;13.10;;;7.75;;
35715;SDS011;21840;44.920;8.616;2023-02-28T07:07:16;14.70;;;7.95;;
35715;SDS011;21840;44.920;8.616;2023-02-28T07:09:41;15.98;;;8.38;;
35715;SDS011;21840;44.920;8.616;2023-02-28T07:12:07;11.38;;;6.60;;
35715;SDS011;21840;44.920;8.616;2023-02-28T07:14:32;12.57;;;7.18;;
35715;SDS011;21840;44.920;8.616;2023-02-28T07:16:58;14.00;;;7.80;;
35715;SDS011;21840;44.920;8.616;2023-02-28T07:19:23;14.65;;;7.32;;
35715;SDS011;21840;44.920;8.616;2023-02-28T07:21:48;12.32;;;7.38;;
35715;SDS011;21840;44.920;8.616;2023-02-28T07:24:14;14.25;;;7.55;;
35715;SDS011;21840;44.920;8.616;2023-02-28T07:26:41;14.82;;;9.00;;
35715;SDS011;21840;44.920;8.616;2023-02-28T07:29:06;13.30;;;7.68;;
35715;SDS011;21840;44.920;8.616;2023-02-28T07:31:32;13.30;;;7.78;;
35715;SDS011;21840;44.920;8.616;2023-02-28T07:33:57;13.23;;;7.85;;
35715;SDS011;21840;44.920;8.616;2023-02-28T07:36:23;12.45;;;7.65;;
35715;SDS011;21840;44.920;8.616;2023-02-28T07:38:49;15.13;;;7.78;;
35715;SDS011;21840;44.920;8.616;2023-02-28T07:41:19;13.90;;;7.72;;
35715;SDS011;21840;44.920;8.616;2023-02-28T07:43:46;11.73;;;7.50;;
35715;SDS011;21840;44.920;8.616;2023-02-28T07:46:12;13.10;;;7.55;;
35715;SDS011;21840;44.920;8.616;2023-02-28T07:48:42;17.33;;;7.93;;
35715;SDS011;21840;44.920;8.616;2023-02-28T07:51:08;11.82;;;7.43;;
35715;SDS011;21840;44.920;8.616;2023-02-28T07:53:33;10.77;;;6.95;;
35715;SDS011;21840;44.920;8.616;2023-02-28T07:56:00;14.15;;;7.55;;
35715;SDS011;21840;44.920;8.616;2023-02-28T07:58:26;17.33;;;8.10;;
35715;SDS011;21840;44.920;8.616;2023-02-28T08:00:53;13.15;;;7.25;;
35715;SDS011;21840;44.920;8.616;2023-02-28T08:03:19;11.48;;;7.40;;
35715;SDS011;21840;44.920;8.616;2023-02-28T08:05:46;12.00;;;7.57;;
35715;SDS011;21840;44.920;8.616;2023-02-28T08:08:11;10.23;;;6.85;;
35715;SDS011;21840;44.920;8.616;2023-02-28T08:10:37;11.88;;;6.95;;
35715;SDS011;21840;44.920;8.616;2023-02-28T08:13:02;12.88;;;7.35;;
35715;SDS011;21840;44.920;8.616;2023-02-28T08:15:28;12.48;;;7.43;;
35715;SDS011;21840;44.920;8.616;2023-02-28T08:17:54;15.20;;;7.65;;
35715;SDS011;21840;44.920;8.616;2023-02-28T08:20:21;11.35;;;7.45;;
35715;SDS011;21840;44.920;8.616;2023-02-28T08:22:47;12.82;;;7.18;;
35715;SDS011;21840;44.920;8.616;2023-02-28T08:25:12;11.68;;;7.30;;
35715;SDS011;21840;44.920;8.616;2023-02-28T08:27:38;11.35;;;7.15;;
35715;SDS011;21840;44.920;8.616;2023-02-28T08:30:04;12.27;;;7.68;;
35715;SDS011;21840;44.920;8.616;2023-02-28T08:32:29;14.85;;;7.43;;
35715;SDS011;21840;44.920;8.616;2023-02-28T08:34:56;14.48;;;7.85;;
35715;SDS011;21840;44.920;8.616;2023-02-28T08:37:22;12.82;;;7.85;;
35715;SDS011;21840;44.920;8.616;2023-02-28T08:39:47;13.07;;;7.03;;
35715;SDS011;21840;44.920;8.616;2023-02-28T08:42:13;12.27;;;8.07;;
35715;SDS011;21840;44.920;8.616;2023-02-28T08:44:38;13.52;;;8.35;;
35715;SDS011;21840;44.920;8.616;2023-02-28T08:47:05;17.95;;;7.32;;
35715;SDS011;21840;44.920;8.616;2023-02-28T08:49:31;15.18;;;7.88;;
35715;SDS011;21840;44.920;8.616;2023-02-28T08:51:56;11.15;;;7.38;;
35715;SDS011;21840;44.920;8.616;2023-02-28T08:54:22;18.98;;;8.63;;
35715;SDS011;21840;44.920;8.616;2023-02-28T08:56:48;13.52;;;7.97;;
35715;SDS011;21840;44.920;8.616;2023-02-28T08:59:14;14.02;;;7.68;;
35715;SDS011;21840;44.920;8.616;2023-02-28T09:01:40;14.68;;;7.82;;
35715;SDS011;21840;44.920;8.616;2023-02-28T09:04:06;16.05;;;7.88;;
35715;SDS011;21840;44.920;8.616;2023-02-28T09:06:33;12.75;;;8.68;;
35715;SDS011;21840;44.920;8.616;2023-02-28T09:09:00;15.15;;;8.30;;
35715;SDS011;21840;44.920;8.616;2023-02-28T09:11:26;13.93;;;8.50;;
35715;SDS011;21840;44.920;8.616;2023-02-28T09:13:53;17.10;;;8.45;;
35715;SDS011;21840;44.920;8.616;2023-02-28T09:16:20;16.13;;;8.05;;
35715;SDS011;21840;44.920;8.616;2023-02-28T09:18:46;17.20;;;8.20;;
35715;SDS011;21840;44.920;8.616;2023-02-28T09:21:12;16.50;;;8.65;;
35715;SDS011;21840;44.920;8.616;2023-02-28T09:23:40;12.38;;;7.75;;
35715;SDS011;21840;44.920;8.616;2023-02-28T09:26:07;12.88;;;7.47;;
35715;SDS011;21840;44.920;8.616;2023-02-28T09:28:33;13.05;;;8.15;;
35715;SDS011;21840;44.920;8.616;2023-02-28T09:30:58;14.55;;;7.82;;
35715;SDS011;21840;44.920;8.616;2023-02-28T09:33:24;13.60;;;7.90;;
35715;SDS011;21840;44.920;8.616;2023-02-28T09:35:50;15.27;;;8.43;;
35715;SDS011;21840;44.920;8.616;2023-02-28T09:38:22;12.05;;;7.65;;
35715;SDS011;21840;44.920;8.616;2023-02-28T09:43:20;13.05;;;7.75;;
35715;SDS011;21840;44.920;8.616;2023-02-28T09:45:56;13.48;;;7.72;;
35715;SDS011;21840;44.920;8.616;2023-02-28T09:48:32;16.55;;;8.43;;
35715;SDS011;21840;44.920;8.616;2023-02-28T09:53:48;19.17;;;9.10;;
35715;SDS011;21840;44.920;8.616;2023-02-28T09:56:21;14.77;;;9.35;;
35715;SDS011;21840;44.920;8.616;2023-02-28T09:59:00;16.10;;;8.82;;
35715;SDS011;21840;44.920;8.616;2023-02-28T10:01:37;13.63;;;8.40;;
35715;SDS011;21840;44.920;8.616;2023-02-28T10:06:54;14.18;;;9.15;;
35715;SDS011;21840;44.920;8.616;2023-02-28T10:09:27;14.25;;;8.57;;
35715;SDS011;21840;44.920;8.616;2023-02-28T10:11:59;13.43;;;9.02;;
35715;SDS011;21840;44.920;8.616;2023-02-28T10:14:29;13.30;;;8.25;;
35715;SDS011;21840;44.920;8.616;2023-02-28T10:17:02;15.60;;;8.50;;
35715;SDS011;21840;44.920;8.616;2023-02-28T10:22:29;14.60;;;7.90;;
35715;SDS011;21840;44.920;8.616;2023-02-28T10:25:04;17.23;;;9.32;;
35715;SDS011;21840;44.920;8.616;2023-02-28T10:27:41;14.20;;;8.73;;
35715;SDS011;21840;44.920;8.616;2023-02-28T10:30:08;10.82;;;7.53;;
35715;SDS011;21840;44.920;8.616;2023-02-28T10:32:36;14.60;;;8.35;;
35715;SDS011;21840;44.920;8.616;2023-02-28T10:35:14;16.02;;;7.85;;
35715;SDS011;21840;44.920;8.616;2023-02-28T10:37:59;16.52;;;8.38;;
35715;SDS011;21840;44.920;8.616;2023-02-28T10:40:34;10.10;;;7.10;;
35715;SDS011;21840;44.920;8.616;2023-02-28T10:43:34;13.07;;;7.18;;
35715;SDS011;21840;44.920;8.616;2023-02-28T10:55:59;11.00;;;7.50;;
35715;SDS011;21840;44.920;8.616;2023-02-28T11:01:17;15.20;;;7.90;;
35715;SDS011;21840;44.920;8.616;2023-02-28T11:03:56;11.35;;;6.90;;
35715;SDS011;21840;44.920;8.616;2023-02-28T11:06:26;12.55;;;7.57;;
35715;SDS011;21840;44.920;8.616;2023-02-28T11:08:55;14.15;;;7.90;;
35715;SDS011;21840;44.920;8.616;2023-02-28T11:11:24;13.98;;;7.75;;
35715;SDS011;21840;44.920;8.616;2023-02-28T11:13:52;10.75;;;6.90;;
35715;SDS011;21840;44.920;8.616;2023-02-28T11:16:21;10.90;;;7.00;;
35715;SDS011;21840;44.920;8.616;2023-02-28T11:18:56;11.88;;;7.13;;
35715;SDS011;21840;44.920;8.616;2023-02-28T11:21:34;12.25;;;7.40;;
35715;SDS011;21840;44.920;8.616;2023-02-28T11:26:41;12.70;;;7.50;;
35715;SDS011;21840;44.920;8.616;2023-02-28T11:29:16;11.10;;;7.38;;
35715;SDS011;21840;44.920;8.616;2023-02-28T11:31:59;16.13;;;8.40;;
35715;SDS011;21840;44.920;8.616;2023-02-28T11:34:30;12.70;;;7.50;;
35715;SDS011;21840;44.920;8.616;2023-02-28T11:36:57;13.20;;;7.75;;
35715;SDS011;21840;44.920;8.616;2023-02-28T11:39:25;13.68;;;8.15;;
35715;SDS011;21840;44.920;8.616;2023-02-28T11:53:01;11.27;;;7.85;;
35715;SDS011;21840;44.920;8.616;2023-02-28T11:55:36;15.88;;;8.23;;
35715;SDS011;21840;44.920;8.616;2023-02-28T12:06:05;12.63;;;8.82;;
35715;SDS011;21840;44.920;8.616;2023-02-28T12:22:27;13.82;;;9.30;;
35715;SDS011;21840;44.920;8.616;2023-02-28T12:28:20;14.75;;;8.88;;
35715;SDS011;21840;44.920;8.616;2023-02-28T12:31:53;12.23;;;8.95;;
35715;SDS011;21840;44.920;8.616;2023-02-28T12:33:53;21.55;;;9.30;;
35715;SDS011;21840;44.920;8.616;2023-02-28T12:36:24;15.88;;;9.20;;
35715;SDS011;21840;44.920;8.616;2023-02-28T12:44:17;17.88;;;9.93;;
35715;SDS011;21840;44.920;8.616;2023-02-28T12:46:54;14.43;;;9.20;;
35715;SDS011;21840;44.920;8.616;2023-02-28T12:51:56;16.38;;;9.07;;
35715;SDS011;21840;44.920;8.616;2023-02-28T12:57:06;14.17;;;9.60;;
35715;SDS011;21840;44.920;8.616;2023-02-28T12:59:38;14.32;;;9.70;;
35715;SDS011;21840;44.920;8.616;2023-02-28T13:04:47;18.08;;;10.05;;
35715;SDS011;21840;44.920;8.616;2023-02-28T13:07:28;14.02;;;10.18;;
35715;SDS011;21840;44.920;8.616;2023-02-28T13:10:04;14.98;;;9.75;;
35715;SDS011;21840;44.920;8.616;2023-02-28T13:12:32;15.75;;;10.20;;
35715;SDS011;21840;44.920;8.616;2023-02-28T13:17:41;13.70;;;9.57;;
35715;SDS011;21840;44.920;8.616;2023-02-28T13:20:20;17.20;;;10.13;;
35715;SDS011;21840;44.920;8.616;2023-02-28T13:22:51;21.30;;;10.38;;
35715;SDS011;21840;44.920;8.616;2023-02-28T13:27:46;15.40;;;10.25;;
35715;SDS011;21840;44.920;8.616;2023-02-28T13:33:22;17.90;;;11.63;;
35715;SDS011;21840;44.920;8.616;2023-02-28T13:46:32;19.80;;;12.10;;
35715;SDS011;21840;44.920;8.616;2023-02-28T13:51:48;16.02;;;11.82;;
35715;SDS011;21840;44.920;8.616;2023-02-28T14:00:17;19.23;;;12.25;;
35715;SDS011;21840;44.920;8.616;2023-02-28T14:06:07;18.17;;;12.27;;
35715;SDS011;21840;44.920;8.616;2023-02-28T14:11:37;17.33;;;11.60;;
35715;SDS011;21840;44.920;8.616;2023-02-28T14:14:05;17.80;;;11.93;;
35715;SDS011;21840;44.920;8.616;2023-02-28T14:16:36;23.23;;;12.07;;
35715;SDS011;21840;44.920;8.616;2023-02-28T14:19:12;15.60;;;11.82;;
35715;SDS011;21840;44.920;8.616;2023-02-28T14:21:44;18.20;;;12.00;;
35715;SDS011;21840;44.920;8.616;2023-02-28T14:27:21;25.67;;;13.15;;
35715;SDS011;21840;44.920;8.616;2023-02-28T14:30:01;20.30;;;13.02;;
35715;SDS011;21840;44.920;8.616;2023-02-28T14:35:43;19.48;;;12.57;;
35715;SDS011;21840;44.920;8.616;2023-02-28T14:38:15;21.08;;;13.95;;
35715;SDS011;21840;44.920;8.616;2023-02-28T14:40:46;20.73;;;13.20;;
35715;SDS011;21840;44.920;8.616;2023-02-28T14:43:19;21.23;;;13.30;;
35715;SDS011;21840;44.920;8.616;2023-02-28T14:48:16;22.90;;;12.80;;
35715;SDS011;21840;44.920;8.616;2023-02-28T14:50:48;22.52;;;14.10;;
35715;SDS011;21840;44.920;8.616;2023-02-28T14:53:16;19.75;;;13.25;;
35715;SDS011;21840;44.920;8.616;2023-02-28T14:55:45;18.35;;;13.05;;
35715;SDS011;21840;44.920;8.616;2023-02-28T14:58:19;19.02;;;12.45;;
35715;SDS011;21840;44.920;8.616;2023-02-28T15:00:51;20.55;;;13.30;;
35715;SDS011;21840;44.920;8.616;2023-02-28T15:05:59;23.75;;;13.60;;
35715;SDS011;21840;44.920;8.616;2023-02-28T15:08:30;23.00;;;13.20;;
35715;SDS011;21840;44.920;8.616;2023-02-28T15:13:54;20.98;;;13.10;;
35715;SDS011;21840;44.920;8.616;2023-02-28T15:16:36;26.85;;;12.57;;
35715;SDS011;21840;44.920;8.616;2023-02-28T15:19:06;16.92;;;13.00;;
35715;SDS011;21840;44.920;8.616;2023-02-28T15:21:41;20.15;;;13.35;;
35715;SDS011;21840;44.920;8.616;2023-02-28T15:27:04;20.42;;;12.90;;
35715;SDS011;21840;44.920;8.616;2023-02-28T15:29:42;18.92;;;12.15;;
35715;SDS011;21840;44.920;8.616;2023-02-28T15:32:27;21.85;;;13.25;;
35715;SDS011;21840;44.920;8.616;2023-02-28T15:34:55;19.58;;;12.10;;
35715;SDS011;21840;44.920;8.616;2023-02-28T15:40:04;21.00;;;13.05;;
35715;SDS011;21840;44.920;8.616;2023-02-28T15:42:30;20.73;;;12.23;;
35715;SDS011;21840;44.920;8.616;2023-02-28T15:44:56;21.52;;;12.10;;
35715;SDS011;21840;44.920;8.616;2023-02-28T15:47:26;18.45;;;12.90;;
35715;SDS011;21840;44.920;8.616;2023-02-28T15:49:56;19.55;;;12.98;;
35715;SDS011;21840;44.920;8.616;2023-02-28T15:52:27;29.95;;;14.15;;
35715;SDS011;21840;44.920;8.616;2023-02-28T15:54:53;19.17;;;13.18;;
35715;SDS011;21840;44.920;8.616;2023-02-28T15:57:23;20.95;;;12.90;;
35715;SDS011;21840;44.920;8.616;2023-02-28T15:59:55;19.92;;;12.68;;
35715;SDS011;21840;44.920;8.616;2023-02-28T16:07:32;51.33;;;15.38;;
35715;SDS011;21840;44.920;8.616;2023-02-28T16:09:58;27.15;;;13.15;;
35715;SDS011;21840;44.920;8.616;2023-02-28T16:12:25;17.73;;;11.45;;
35715;SDS011;21840;44.920;8.616;2023-02-28T16:14:54;19.05;;;12.40;;
35715;SDS011;21840;44.920;8.616;2023-02-28T16:17:23;17.88;;;11.93;;
35715;SDS011;21840;44.920;8.616;2023-02-28T16:19:54;20.00;;;12.20;;
35715;SDS011;21840;44.920;8.616;2023-02-28T16:22:20;22.02;;;11.73;;
35715;SDS011;21840;44.920;8.616;2023-02-28T16:24:46;17.02;;;11.40;;
35715;SDS011;21840;44.920;8.616;2023-02-28T16:27:31;21.10;;;12.15;;
35715;SDS011;21840;44.920;8.616;2023-02-28T16:30:01;20.75;;;12.50;;
35715;SDS011;21840;44.920;8.616;2023-02-28T16:32:27;17.83;;;12.18;;
35715;SDS011;21840;44.920;8.616;2023-02-28T16:34:52;18.70;;;12.05;;
35715;SDS011;21840;44.920;8.616;2023-02-28T16:37:18;27.55;;;13.05;;
35715;SDS011;21840;44.920;8.616;2023-02-28T16:39:44;21.38;;;11.75;;
35715;SDS011;21840;44.920;8.616;2023-02-28T16:42:11;17.63;;;12.38;;
35715;SDS011;21840;44.920;8.616;2023-02-28T16:44:42;35.05;;;14.05;;
35715;SDS011;21840;44.920;8.616;2023-02-28T16:47:08;23.02;;;13.85;;
35715;SDS011;21840;44.920;8.616;2023-02-28T16:49:35;20.73;;;12.18;;
35715;SDS011;21840;44.920;8.616;2023-02-28T16:52:01;30.48;;;12.55;;
35715;SDS011;21840;44.920;8.616;2023-02-28T16:54:26;20.88;;;12.57;;
35715;SDS011;21840;44.920;8.616;2023-02-28T16:56:52;18.15;;;12.48;;
35715;SDS011;21840;44.920;8.616;2023-02-28T16:59:19;23.52;;;12.88;;
35715;SDS011;21840;44.920;8.616;2023-02-28T17:01:48;21.90;;;13.23;;
35715;SDS011;21840;44.920;8.616;2023-02-28T17:04:14;21.30;;;13.38;;
35715;SDS011;21840;44.920;8.616;2023-02-28T17:06:40;21.15;;;12.85;;
35715;SDS011;21840;44.920;8.616;2023-02-28T17:09:08;19.50;;;12.50;;
35715;SDS011;21840;44.920;8.616;2023-02-28T17:11:40;22.35;;;13.13;;
35715;SDS011;21840;44.920;8.616;2023-02-28T17:14:05;19.27;;;13.13;;
35715;SDS011;21840;44.920;8.616;2023-02-28T17:16:34;21.80;;;13.75;;
35715;SDS011;21840;44.920;8.616;2023-02-28T17:19:02;19.77;;;12.98;;
35715;SDS011;21840;44.920;8.616;2023-02-28T17:21:30;19.88;;;12.77;;
35715;SDS011;21840;44.920;8.616;2023-02-28T17:23:58;27.60;;;13.52;;
35715;SDS011;21840;44.920;8.616;2023-02-28T17:26:24;22.13;;;12.65;;
35715;SDS011;21840;44.920;8.616;2023-02-28T17:28:50;19.15;;;13.25;;